createdAt,value
2018-02-21T00:01:25.562Z,6.20
2018-02-21T00:03:53.257Z,6.10
2018-02-21T00:06:20.706Z,6.20
2018-02-21T00:08:48.172Z,6.30
2018-02-21T00:11:15.588Z,6.30
2018-02-21T00:13:43.024Z,6.40
2018-02-21T00:16:10.558Z,6.40
2018-02-21T00:18:37.988Z,6.50
2018-02-21T00:21:05.431Z,6.60
2018-02-21T00:23:32.864Z,6.60
2018-02-21T00:26:01.062Z,6.70
2018-02-21T00:28:28.493Z,6.60
2018-02-21T00:30:56.681Z,6.70
2018-02-21T00:33:24.115Z,6.70
2018-02-21T00:35:51.533Z,6.60
2018-02-21T00:38:18.980Z,6.70
2018-02-21T00:40:46.406Z,6.70
2018-02-21T00:43:14.602Z,6.80
2018-02-21T00:45:42.025Z,6.70
2018-02-21T00:48:11.162Z,6.80
2018-02-21T00:50:38.588Z,6.80
2018-02-21T00:53:06.782Z,6.90
2018-02-21T00:55:34.205Z,6.90
2018-02-21T00:58:01.629Z,6.90
2018-02-21T01:00:29.063Z,6.90
2018-02-21T01:02:56.546Z,7.00
2018-02-21T01:05:24.698Z,6.80
2018-02-21T01:07:52.259Z,6.80
2018-02-21T01:10:19.688Z,6.80
2018-02-21T01:12:47.902Z,6.80
2018-02-21T01:15:15.336Z,6.80
2018-02-21T01:17:42.772Z,6.80
2018-02-21T01:20:10.633Z,6.80
2018-02-21T01:22:38.837Z,6.70
2018-02-21T01:25:06.307Z,6.70
2018-02-21T01:27:33.720Z,6.60
2018-02-21T01:30:01.918Z,6.80
2018-02-21T01:32:30.104Z,6.90
2018-02-21T01:34:57.537Z,6.90
2018-02-21T01:37:25.723Z,6.80
2018-02-21T01:39:53.173Z,6.80
2018-02-21T01:42:21.369Z,6.90
2018-02-21T01:44:48.794Z,6.90
2018-02-21T01:47:16.978Z,6.80
2018-02-21T01:49:45.175Z,6.70
2018-02-21T01:54:45.384Z,6.60
2018-02-21T01:57:13.565Z,6.50
2018-02-21T01:59:41.769Z,6.40
2018-02-21T02:02:09.204Z,6.40
2018-02-21T02:04:37.405Z,6.40
2018-02-21T02:07:04.828Z,6.30
2018-02-21T02:09:33.045Z,6.30
2018-02-21T02:12:00.467Z,6.30
2018-02-21T02:14:28.734Z,6.20
2018-02-21T02:16:56.145Z,6.20
2018-02-21T02:19:23.586Z,6.20
2018-02-21T02:21:51.013Z,6.10
2018-02-21T02:24:19.228Z,5.90
2018-02-21T02:26:46.675Z,5.90
2018-02-21T02:29:14.139Z,5.90
2018-02-21T02:31:41.589Z,5.80
2018-02-21T02:34:09.029Z,5.60
2018-02-21T02:36:36.452Z,5.60
2018-02-21T02:39:15.709Z,5.50
2018-02-21T02:41:43.903Z,5.40
2018-02-21T02:44:11.401Z,5.40
2018-02-21T02:46:38.836Z,5.60
2018-02-21T02:49:06.276Z,5.60
2018-02-21T02:51:33.728Z,5.70
2018-02-21T02:54:01.175Z,5.80
2018-02-21T02:56:29.377Z,5.70
2018-02-21T02:58:56.817Z,5.70
2018-02-21T03:01:24.242Z,5.80
2018-02-21T03:03:51.687Z,5.80
2018-02-21T03:06:19.119Z,5.90
2018-02-21T03:08:46.838Z,6.00
2018-02-21T03:11:15.050Z,6.00
2018-02-21T03:13:42.485Z,6.00
2018-02-21T03:16:09.909Z,6.00
2018-02-21T03:18:37.642Z,6.20
2018-02-21T03:21:05.053Z,6.10
2018-02-21T03:23:33.249Z,6.10
2018-02-21T03:26:00.681Z,6.10
2018-02-21T03:28:28.897Z,6.00
2018-02-21T03:30:57.110Z,6.00
2018-02-21T03:33:24.529Z,6.00
2018-02-21T03:35:51.952Z,6.00
2018-02-21T03:38:19.397Z,6.00
2018-02-21T03:40:47.596Z,6.10
2018-02-21T03:43:15.036Z,6.10
2018-02-21T03:45:43.257Z,6.10
2018-02-21T03:48:11.606Z,6.10
2018-02-21T03:50:39.046Z,6.10
2018-02-21T03:53:07.246Z,6.00
2018-02-21T03:55:34.674Z,6.00
2018-02-21T03:58:02.893Z,6.10
2018-02-21T04:00:30.300Z,6.10
2018-02-21T04:02:58.497Z,6.20
2018-02-21T04:05:25.923Z,6.20
2018-02-21T04:07:53.343Z,6.10
2018-02-21T04:10:20.775Z,6.10
2018-02-21T04:12:48.201Z,6.30
2018-02-21T04:15:16.400Z,6.30
2018-02-21T04:17:44.768Z,6.30
2018-02-21T04:20:12.952Z,6.00
2018-02-21T04:22:40.378Z,6.00
2018-02-21T04:25:07.822Z,6.20
2018-02-21T04:27:35.239Z,6.20
2018-02-21T04:30:02.664Z,6.00
2018-02-21T04:32:30.869Z,6.00
2018-02-21T04:34:58.288Z,6.00
2018-02-21T04:37:26.493Z,6.00
2018-02-21T04:39:53.952Z,6.00
2018-02-21T04:42:22.152Z,6.10
2018-02-21T04:44:49.580Z,6.10
2018-02-21T04:47:17.012Z,6.10
2018-02-21T04:49:45.207Z,6.00
2018-02-21T04:52:12.637Z,6.00
2018-02-21T04:57:59.586Z,5.90
2018-02-21T05:00:27.814Z,5.50
2018-02-21T05:02:55.247Z,5.50
2018-02-21T05:05:22.677Z,5.40
2018-02-21T05:07:50.868Z,5.40
2018-02-21T05:10:18.306Z,5.30
2018-02-21T05:12:46.512Z,5.40
2018-02-21T05:15:13.942Z,5.30
2018-02-21T05:17:42.143Z,5.20
2018-02-21T05:20:09.573Z,5.10
2018-02-21T05:22:37.761Z,5.00
2018-02-21T05:25:05.184Z,5.00
2018-02-21T05:27:32.611Z,4.70
2018-02-21T05:30:00.800Z,4.80
2018-02-21T05:32:28.246Z,4.80
2018-02-21T05:34:55.664Z,4.70
2018-02-21T05:37:23.092Z,4.80
2018-02-21T05:39:50.504Z,4.70
2018-02-21T05:42:17.957Z,4.60
2018-02-21T05:44:45.381Z,4.60
2018-02-21T05:47:13.575Z,4.40
2018-02-21T05:49:41.011Z,4.40
2018-02-21T05:52:09.204Z,4.50
2018-02-21T05:54:36.620Z,4.50
2018-02-21T05:57:04.051Z,4.50
2018-02-21T05:59:31.506Z,4.50
2018-02-21T06:01:58.934Z,4.50
2018-02-21T06:04:27.151Z,4.40
2018-02-21T06:06:54.578Z,4.40
2018-02-21T06:09:22.051Z,4.40
2018-02-21T06:11:49.493Z,4.40
2018-02-21T06:14:16.914Z,4.30
2018-02-21T06:16:45.109Z,4.30
2018-02-21T06:19:14.363Z,4.30
2018-02-21T06:21:41.820Z,4.30
2018-02-21T06:24:09.241Z,4.20
2018-02-21T06:26:36.669Z,4.20
2018-02-21T06:29:04.884Z,4.20
2018-02-21T06:31:32.334Z,4.20
2018-02-21T06:33:59.749Z,4.10
2018-02-21T06:36:27.932Z,4.00
2018-02-21T06:38:56.137Z,4.00
2018-02-21T06:41:23.561Z,4.00
2018-02-21T06:43:51.827Z,4.10
2018-02-21T06:46:19.189Z,4.00
2018-02-21T06:48:47.389Z,4.00
2018-02-21T06:51:15.582Z,4.00
2018-02-21T06:53:43.002Z,4.00
2018-02-21T06:56:12.112Z,4.10
2018-02-21T06:58:39.539Z,4.10
2018-02-21T07:01:07.008Z,4.00
2018-02-21T07:03:34.421Z,4.00
2018-02-21T07:06:02.637Z,4.00
2018-02-21T07:08:30.821Z,4.10
2018-02-21T07:10:59.026Z,4.00
2018-02-21T07:13:26.441Z,4.00
2018-02-21T07:15:54.646Z,4.20
2018-02-21T07:18:22.077Z,4.20
2018-02-21T07:20:50.274Z,4.30
2018-02-21T07:23:18.473Z,4.20
2018-02-21T07:25:45.900Z,4.20
2018-02-21T07:28:14.120Z,4.30
2018-02-21T07:30:41.549Z,4.30
2018-02-21T07:33:08.985Z,4.50
2018-02-21T07:35:37.185Z,4.80
2018-02-21T07:38:04.650Z,4.70
2018-02-21T07:40:33.801Z,4.90
2018-02-21T07:43:01.998Z,5.00
2018-02-21T07:45:29.423Z,4.90
2018-02-21T07:47:56.850Z,4.90
2018-02-21T07:50:24.268Z,5.20
2018-02-21T07:52:51.688Z,5.20
2018-02-21T07:55:19.114Z,5.20
2018-02-21T07:57:46.559Z,5.20
2018-02-21T08:00:13.976Z,5.30
2018-02-21T08:02:42.189Z,5.90
2018-02-21T08:05:09.628Z,5.90
2018-02-21T08:07:37.064Z,6.50
2018-02-21T08:10:05.274Z,7.20
2018-02-21T08:12:32.708Z,7.20
2018-02-21T08:15:00.894Z,8.80
2018-02-21T08:17:28.321Z,8.70
2018-02-21T08:19:55.744Z,9.40
2018-02-21T08:22:23.194Z,9.80
2018-02-21T08:24:50.613Z,10.30
2018-02-21T08:27:18.877Z,10.90
2018-02-21T08:29:46.290Z,10.90
2018-02-21T08:32:13.722Z,11.10
2018-02-21T08:34:41.151Z,11.50
2018-02-21T08:37:09.349Z,10.60
2018-02-21T08:39:36.796Z,10.50
2018-02-21T08:42:04.980Z,10.90
2018-02-21T08:44:32.450Z,10.90
2018-02-21T08:46:59.879Z,10.90
2018-02-21T08:49:28.083Z,11.20
2018-02-21T08:51:55.522Z,11.20
2018-02-21T08:54:22.963Z,11.60
2018-02-21T08:56:50.442Z,12.60
2018-02-21T08:59:17.883Z,13.50
2018-02-21T09:01:46.088Z,14.30
2018-02-21T09:04:13.520Z,14.20
2018-02-21T09:06:41.738Z,16.10
2018-02-21T09:09:09.167Z,16.10
2018-02-21T09:11:36.602Z,16.00
2018-02-21T09:14:04.812Z,16.30
2018-02-21T09:16:32.323Z,16.30
2018-02-21T09:18:59.699Z,16.70
2018-02-21T09:21:27.896Z,17.40
2018-02-21T09:23:55.417Z,17.40
2018-02-21T09:26:22.804Z,17.50
2018-02-21T09:28:50.249Z,17.60
2018-02-21T09:31:18.437Z,18.70
2018-02-21T09:33:45.899Z,18.60
2018-02-21T09:36:13.342Z,18.70
2018-02-21T09:38:40.821Z,18.70
2018-02-21T09:41:08.246Z,18.70
2018-02-21T09:43:36.457Z,20.00
2018-02-21T09:46:03.902Z,19.90
2018-02-21T09:48:31.375Z,20.60
2018-02-21T09:50:58.802Z,20.80
2018-02-21T09:53:27.027Z,20.60
2018-02-21T09:55:54.450Z,20.60
2018-02-21T09:58:21.902Z,20.90
2018-02-21T10:00:49.361Z,20.80
2018-02-21T10:03:16.817Z,21.40
2018-02-21T10:05:44.257Z,21.00
2018-02-21T10:08:11.997Z,21.20
2018-02-21T10:10:39.430Z,21.50
2018-02-21T10:13:06.872Z,21.60
2018-02-21T10:15:34.289Z,22.10
2018-02-21T10:18:02.502Z,21.90
2018-02-21T10:20:29.927Z,21.80
2018-02-21T10:22:58.141Z,22.70
2018-02-21T10:25:25.574Z,22.60
2018-02-21T10:27:53.066Z,22.70
2018-02-21T10:30:20.484Z,22.30
2018-02-21T10:32:47.912Z,22.00
2018-02-21T10:35:15.354Z,21.40
2018-02-21T10:37:42.799Z,21.20
2018-02-21T10:40:10.238Z,20.90
2018-02-21T10:42:37.690Z,21.30
2018-02-21T10:45:05.148Z,21.10
2018-02-21T10:47:32.568Z,21.30
2018-02-21T10:50:00.767Z,22.30
2018-02-21T10:52:28.984Z,22.30
2018-02-21T10:54:56.412Z,22.00
2018-02-21T10:57:23.840Z,21.10
2018-02-21T10:59:51.301Z,21.70
2018-02-21T11:02:19.649Z,22.00
2018-02-21T11:04:47.072Z,22.00
2018-02-21T11:07:14.514Z,22.10
2018-02-21T11:09:41.973Z,22.20
2018-02-21T11:12:09.380Z,22.20
2018-02-21T11:14:36.880Z,22.00
2018-02-21T11:17:04.287Z,21.90
2018-02-21T11:19:31.720Z,22.00
2018-02-21T11:21:59.167Z,22.60
2018-02-21T11:24:26.625Z,23.30
2018-02-21T11:26:54.056Z,23.70
2018-02-21T11:29:21.496Z,23.70
2018-02-21T11:31:48.930Z,23.10
2018-02-21T11:34:16.406Z,22.80
2018-02-21T11:36:43.838Z,22.90
2018-02-21T11:39:12.201Z,23.20
2018-02-21T11:41:39.639Z,23.40
2018-02-21T11:44:07.057Z,23.90
2018-02-21T11:46:35.267Z,23.90
2018-02-21T11:49:02.721Z,23.80
2018-02-21T11:51:30.239Z,23.40
2018-02-21T11:53:57.701Z,23.40
2018-02-21T11:56:25.470Z,23.40
2018-02-21T11:58:52.905Z,23.70
2018-02-21T12:01:20.341Z,23.80
2018-02-21T12:03:47.777Z,23.90
2018-02-21T12:06:15.996Z,24.00
2018-02-21T12:08:43.447Z,24.00
2018-02-21T12:11:10.868Z,24.20
2018-02-21T12:13:38.318Z,24.10
2018-02-21T12:16:06.546Z,22.90
2018-02-21T12:18:33.962Z,22.90
2018-02-21T12:21:01.389Z,22.60
2018-02-21T12:23:29.600Z,23.00
2018-02-21T12:25:57.039Z,23.00
2018-02-21T12:28:24.473Z,23.20
2018-02-21T12:30:52.676Z,23.20
2018-02-21T12:33:20.121Z,23.20
2018-02-21T12:35:47.565Z,23.20
2018-02-21T12:38:15.764Z,23.40
2018-02-21T12:40:48.825Z,23.40
2018-02-21T12:43:17.025Z,22.70
2018-02-21T12:45:44.456Z,22.70
2018-02-21T12:48:13.266Z,22.70
2018-02-21T12:50:40.700Z,22.70
2018-02-21T12:53:08.124Z,22.80
2018-02-21T12:55:35.580Z,23.10
2018-02-21T12:58:03.000Z,23.20
2018-02-21T13:00:30.498Z,23.00
2018-02-21T13:02:57.926Z,22.20
2018-02-21T13:05:25.358Z,22.20
2018-02-21T13:07:53.563Z,22.10
2018-02-21T13:10:20.991Z,22.00
2018-02-21T13:12:49.200Z,22.50
2018-02-21T13:15:16.636Z,22.50
2018-02-21T13:17:44.070Z,22.20
2018-02-21T13:20:13.196Z,21.90
2018-02-21T13:22:40.641Z,21.90
2018-02-21T13:25:08.128Z,21.50
2018-02-21T13:27:35.555Z,21.30
2018-02-21T13:30:03.759Z,20.40
2018-02-21T13:32:31.185Z,20.30
2018-02-21T13:34:59.387Z,21.00
2018-02-21T13:37:27.717Z,20.90
2018-02-21T13:39:55.154Z,21.20
2018-02-21T13:42:22.583Z,21.60
2018-02-21T13:44:51.167Z,21.60
2018-02-21T13:47:19.838Z,21.20
2018-02-21T13:49:47.322Z,21.30
2018-02-21T13:52:14.750Z,20.60
2018-02-21T13:54:42.184Z,20.60
2018-02-21T13:57:10.385Z,20.80
2018-02-21T13:59:38.090Z,20.70
2018-02-21T14:02:05.543Z,20.90
2018-02-21T14:04:32.981Z,20.80
2018-02-21T14:07:00.441Z,20.70
2018-02-21T14:09:28.888Z,20.80
2018-02-21T14:11:57.093Z,20.50
2018-02-21T14:14:24.521Z,20.40
2018-02-21T14:16:52.725Z,20.70
2018-02-21T14:19:20.144Z,20.70
2018-02-21T14:21:48.353Z,20.00
2018-02-21T14:24:16.616Z,20.00
2018-02-21T14:26:44.081Z,20.10
2018-02-21T14:29:11.585Z,20.20
2018-02-21T14:31:38.980Z,20.10
2018-02-21T14:34:07.162Z,19.40
2018-02-21T14:36:34.593Z,19.40
2018-02-21T14:39:02.027Z,18.90
2018-02-21T14:41:29.448Z,17.90
2018-02-21T14:43:56.913Z,17.10
2018-02-21T14:46:24.337Z,16.80
2018-02-21T14:48:52.548Z,16.60
2018-02-21T14:51:19.992Z,16.50
2018-02-21T14:53:47.418Z,16.60
2018-02-21T14:56:15.619Z,15.50
2018-02-21T14:58:43.077Z,15.40
2018-02-21T15:01:10.529Z,15.00
2018-02-21T15:03:38.710Z,14.20
2018-02-21T15:06:06.171Z,14.20
2018-02-21T15:08:33.596Z,14.30
2018-02-21T15:11:01.030Z,13.90
2018-02-21T15:13:28.469Z,13.40
2018-02-21T15:15:55.932Z,12.70
2018-02-21T15:18:23.358Z,12.60
2018-02-21T15:20:50.788Z,12.50
2018-02-21T15:23:19.809Z,12.40
2018-02-21T15:25:47.238Z,12.40
2018-02-21T15:28:16.783Z,12.20
2018-02-21T15:30:44.241Z,12.20
2018-02-21T15:33:11.663Z,12.10
2018-02-21T15:35:39.901Z,12.60
2018-02-21T15:38:07.329Z,12.50
2018-02-21T15:40:34.772Z,13.00
2018-02-21T15:43:02.218Z,13.20
2018-02-21T15:45:30.430Z,13.40
2018-02-21T15:47:57.877Z,13.30
2018-02-21T15:50:25.317Z,13.30
2018-02-21T15:52:52.755Z,13.30
2018-02-21T15:55:20.962Z,12.60
2018-02-21T15:57:48.411Z,12.60
2018-02-21T16:00:15.842Z,12.30
2018-02-21T16:02:44.062Z,12.10
2018-02-21T16:05:11.483Z,12.10
2018-02-21T16:07:39.690Z,11.90
2018-02-21T16:10:07.720Z,11.90
2018-02-21T16:12:35.207Z,11.70
2018-02-21T16:15:02.636Z,11.60
2018-02-21T16:17:30.852Z,11.00
2018-02-21T16:19:58.307Z,10.90
2018-02-21T16:22:25.757Z,10.50
2018-02-21T16:24:53.197Z,10.80
2018-02-21T16:27:21.397Z,10.60
2018-02-21T16:29:48.824Z,10.60
2018-02-21T16:32:17.034Z,10.20
2018-02-21T16:34:44.465Z,10.10
2018-02-21T16:37:11.903Z,10.30
2018-02-21T16:39:40.098Z,10.40
2018-02-21T16:42:08.297Z,10.40
2018-02-21T16:44:35.720Z,10.40
2018-02-21T16:47:03.922Z,9.90
2018-02-21T16:49:31.376Z,9.80
2018-02-21T16:51:58.797Z,9.90
2018-02-21T16:54:26.987Z,9.60
2018-02-21T16:56:55.200Z,9.60
2018-02-21T16:59:22.647Z,9.50
2018-02-21T17:01:50.099Z,9.60
2018-02-21T17:04:17.513Z,9.60
2018-02-21T17:06:44.949Z,9.50
2018-02-21T17:09:13.121Z,9.50
2018-02-21T17:11:40.796Z,9.40
2018-02-21T17:14:08.285Z,9.40
2018-02-21T17:16:36.638Z,9.20
2018-02-21T17:19:04.058Z,9.20
2018-02-21T17:21:31.477Z,9.20
2018-02-21T17:23:59.686Z,9.00
2018-02-21T17:26:27.100Z,9.00
2018-02-21T17:28:55.337Z,9.00
2018-02-21T17:31:22.781Z,8.90
2018-02-21T17:33:50.211Z,8.90
2018-02-21T17:36:17.657Z,9.00
2018-02-21T17:38:45.858Z,8.90
2018-02-21T17:41:18.967Z,8.80
2018-02-21T17:43:46.388Z,8.80
2018-02-21T17:46:13.839Z,8.70
2018-02-21T17:48:42.043Z,8.60
2018-02-21T17:51:09.544Z,8.60
2018-02-21T17:53:36.929Z,8.30
2018-02-21T17:56:05.126Z,8.40
2018-02-21T17:58:32.641Z,8.40
2018-02-21T18:01:00.054Z,8.40
2018-02-21T18:03:27.490Z,8.40
2018-02-21T18:05:54.930Z,8.40
2018-02-21T18:08:23.138Z,8.30
2018-02-21T18:10:50.578Z,8.30
2018-02-21T18:13:18.042Z,8.40
2018-02-21T18:15:45.474Z,8.20
2018-02-21T18:18:13.300Z,8.10
2018-02-21T18:20:40.793Z,8.00
2018-02-21T18:23:08.237Z,7.90
2018-02-21T18:25:35.655Z,7.80
2018-02-21T18:28:03.084Z,7.70
2018-02-21T18:30:30.511Z,7.80
2018-02-21T18:32:57.937Z,7.70
2018-02-21T18:35:25.364Z,7.60
2018-02-21T18:37:52.813Z,7.60
2018-02-21T18:40:20.240Z,7.30
2018-02-21T18:42:47.689Z,7.20
2018-02-21T18:45:15.113Z,7.40
2018-02-21T18:47:42.536Z,7.20
2018-02-21T18:50:10.744Z,7.30
2018-02-21T18:52:38.194Z,7.20
2018-02-21T18:55:05.596Z,7.10
2018-02-21T18:57:33.025Z,7.20
2018-02-21T19:00:00.447Z,7.20
2018-02-21T19:02:27.875Z,7.20
2018-02-21T19:04:55.310Z,6.90
2018-02-21T19:07:24.253Z,6.90
2018-02-21T19:09:51.681Z,6.90
2018-02-21T19:12:19.869Z,7.20
2018-02-21T19:14:48.092Z,7.20
2018-02-21T19:17:15.517Z,7.20
2018-02-21T19:19:42.953Z,7.00
2018-02-21T19:22:11.165Z,6.90
2018-02-21T19:24:38.592Z,6.90
2018-02-21T19:27:06.778Z,6.80
2018-02-21T19:29:34.235Z,6.70
2018-02-21T19:32:03.509Z,6.80
2018-02-21T19:34:32.634Z,6.80
2018-02-21T19:37:00.451Z,6.90
2018-02-21T19:39:30.988Z,6.80
2018-02-21T19:41:58.417Z,6.80
2018-02-21T19:44:25.962Z,6.70
2018-02-21T19:46:53.564Z,6.50
2018-02-21T19:49:20.997Z,6.50
2018-02-21T19:51:48.430Z,6.60
2018-02-21T19:54:15.852Z,6.50
2018-02-21T19:56:43.295Z,6.50
2018-02-21T19:59:11.713Z,6.50
2018-02-21T20:01:40.157Z,6.40
2018-02-21T20:04:07.582Z,6.40
2018-02-21T20:06:35.077Z,6.40
2018-02-21T20:09:02.524Z,6.40
2018-02-21T20:11:30.030Z,6.40
2018-02-21T20:13:59.210Z,6.30
2018-02-21T20:16:27.454Z,6.30
2018-02-21T20:18:55.004Z,6.20
2018-02-21T20:21:22.445Z,6.10
2018-02-21T20:23:50.877Z,6.20
2018-02-21T20:26:18.971Z,6.20
2018-02-21T20:28:47.168Z,6.10
2018-02-21T20:31:14.701Z,6.20
2018-02-21T20:33:42.888Z,6.10
2018-02-21T20:36:10.325Z,6.00
2018-02-21T20:38:38.522Z,6.00
2018-02-21T20:41:05.948Z,6.00
2018-02-21T20:43:34.201Z,6.00
2018-02-21T20:46:01.573Z,6.00
2018-02-21T20:48:29.025Z,6.00
2018-02-21T20:50:56.469Z,5.90
2018-02-21T20:53:23.899Z,5.90
2018-02-21T20:55:51.320Z,5.80
2018-02-21T20:58:19.503Z,5.80
2018-02-21T21:00:46.956Z,5.80
2018-02-21T21:03:15.179Z,5.80
2018-02-21T21:05:42.611Z,5.70
2018-02-21T21:08:10.029Z,5.70
2018-02-21T21:10:37.467Z,5.70
2018-02-21T21:13:04.907Z,5.80
2018-02-21T21:15:32.341Z,5.70
2018-02-21T21:17:59.773Z,5.60
2018-02-21T21:20:27.997Z,5.60
2018-02-21T21:22:55.434Z,5.50
2018-02-21T21:25:22.876Z,5.60
2018-02-21T21:27:50.309Z,5.70
2018-02-21T21:30:18.516Z,5.50
2018-02-21T21:32:45.937Z,5.50
2018-02-21T21:35:13.873Z,5.60
2018-02-21T21:37:41.293Z,5.50
2018-02-21T21:40:08.757Z,5.60
2018-02-21T21:42:36.180Z,5.50
2018-02-21T21:45:04.380Z,5.70
2018-02-21T21:47:31.809Z,5.60
2018-02-21T21:49:59.246Z,5.60
2018-02-21T21:52:26.674Z,5.50
2018-02-21T21:54:54.100Z,5.60
2018-02-21T21:57:22.291Z,5.40
2018-02-21T21:59:49.722Z,5.30
2018-02-21T22:02:17.917Z,5.30
2018-02-21T22:04:45.351Z,5.30
2018-02-21T22:07:14.472Z,5.30
2018-02-21T22:09:41.958Z,5.30
2018-02-21T22:12:09.396Z,5.10
2018-02-21T22:14:36.846Z,5.20
2018-02-21T22:17:04.271Z,5.30
2018-02-21T22:19:31.726Z,5.30
2018-02-21T22:21:59.162Z,5.30
2018-02-21T22:24:26.587Z,5.40
2018-02-21T22:26:54.008Z,5.30
2018-02-21T22:29:22.228Z,5.20
2018-02-21T22:31:49.651Z,5.20
2018-02-21T22:34:17.847Z,5.30
2018-02-21T22:36:45.270Z,5.20
2018-02-21T22:39:14.391Z,5.20
2018-02-21T22:41:41.837Z,5.10
2018-02-21T22:44:10.030Z,4.80
2018-02-21T22:46:37.460Z,4.70
2018-02-21T22:49:05.655Z,5.00
2018-02-21T22:51:33.098Z,4.90
2018-02-21T22:54:01.295Z,4.90
2018-02-21T22:56:28.733Z,4.90
2018-02-21T22:58:56.937Z,4.90
2018-02-21T23:01:24.376Z,4.90
2018-02-21T23:03:51.809Z,5.00
2018-02-21T23:06:20.015Z,4.90
2018-02-21T23:08:47.466Z,4.90
2018-02-21T23:11:14.928Z,4.80
2018-02-21T23:13:42.345Z,4.90
2018-02-21T23:16:09.776Z,4.80
2018-02-21T23:18:37.972Z,4.80
2018-02-21T23:21:05.409Z,4.80
2018-02-21T23:23:32.834Z,4.90
2018-02-21T23:26:00.287Z,4.90
2018-02-21T23:28:27.713Z,4.80
2018-02-21T23:30:55.909Z,4.90
2018-02-21T23:33:23.361Z,4.90
2018-02-21T23:35:51.553Z,4.80
2018-02-21T23:38:18.995Z,4.80
2018-02-21T23:40:47.208Z,4.70
2018-02-21T23:43:14.625Z,4.70
2018-02-21T23:45:42.828Z,4.70
2018-02-21T23:48:10.249Z,4.70
2018-02-21T23:50:38.448Z,4.70
2018-02-21T23:53:06.638Z,4.70
2018-02-21T23:55:34.088Z,4.70
2018-02-21T23:58:01.502Z,4.70
